Cleveland Corner, Vermont
Current Conditions -  °F | °C
As of 9:54 PM on Monday 26 Jan 2015 (Local Time) from KMVL Reporting Station
Overcast Overcast  
Wind Chill:   Ceiling: 10000
Heat Index: 10°   Visibility: 10mi
Dew Point:   Wind: 6mph
Humidity: 64%   Direction: 350°N
Pressure: 30.09"   Gusts: NA
Location:  44.5482°N, 72.6315°W
Report Text: KMVL 270254Z AUTO 35005KT 10SM OVC100 M12/M18 A3009 RMK AO2 SLP210 T11221178 58008 TSNO
Loading
Personal Weather Stations






























Interactive Weather Map New forecast layout! Learn more

10-Day Weather Forecast

Advertisements
Track Severe Weather on mobile